sensor_id;sensor_type;location;lat;lon;timestamp;temperature;humidity
74153;DHT22;62505;46.070;14.492;2022-09-02T00:00:40;23.80;71.50
74153;DHT22;62505;46.070;14.492;2022-09-02T00:03:07;23.80;71.50
74153;DHT22;62505;46.070;14.492;2022-09-02T00:05:36;23.80;71.60
74153;DHT22;62505;46.070;14.492;2022-09-02T00:08:03;23.80;71.40
74153;DHT22;62505;46.070;14.492;2022-09-02T00:10:31;23.80;71.40
74153;DHT22;62505;46.070;14.492;2022-09-02T00:12:58;23.80;71.40
74153;DHT22;62505;46.070;14.492;2022-09-02T00:15:25;23.80;71.20
74153;DHT22;62505;46.070;14.492;2022-09-02T00:17:52;23.80;71.10
74153;DHT22;62505;46.070;14.492;2022-09-02T00:20:20;23.80;71.10
74153;DHT22;62505;46.070;14.492;2022-09-02T00:22:48;23.80;71.10
74153;DHT22;62505;46.070;14.492;2022-09-02T00:25:15;23.80;71.10
74153;DHT22;62505;46.070;14.492;2022-09-02T00:27:42;23.80;71.00
74153;DHT22;62505;46.070;14.492;2022-09-02T00:30:10;23.80;71.00
74153;DHT22;62505;46.070;14.492;2022-09-02T00:32:37;23.80;71.00
74153;DHT22;62505;46.070;14.492;2022-09-02T00:35:05;23.80;70.90
74153;DHT22;62505;46.070;14.492;2022-09-02T00:37:32;23.80;70.70
74153;DHT22;62505;46.070;14.492;2022-09-02T00:40:02;23.80;70.70
74153;DHT22;62505;46.070;14.492;2022-09-02T00:42:29;23.80;70.70
74153;DHT22;62505;46.070;14.492;2022-09-02T00:44:56;23.80;70.70
74153;DHT22;62505;46.070;14.492;2022-09-02T00:47:23;23.70;71.40
74153;DHT22;62505;46.070;14.492;2022-09-02T00:49:52;23.70;70.60
74153;DHT22;62505;46.070;14.492;2022-09-02T00:52:23;23.80;70.60
74153;DHT22;62505;46.070;14.492;2022-09-02T00:54:53;23.80;70.50
74153;DHT22;62505;46.070;14.492;2022-09-02T00:57:26;23.70;70.40
74153;DHT22;62505;46.070;14.492;2022-09-02T01:00:03;23.70;70.50
74153;DHT22;62505;46.070;14.492;2022-09-02T01:02:32;23.80;70.50
74153;DHT22;62505;46.070;14.492;2022-09-02T01:05:00;23.80;70.40
74153;DHT22;62505;46.070;14.492;2022-09-02T01:07:30;23.70;70.30
74153;DHT22;62505;46.070;14.492;2022-09-02T01:09:59;23.70;70.20
74153;DHT22;62505;46.070;14.492;2022-09-02T01:12:28;23.70;70.20
74153;DHT22;62505;46.070;14.492;2022-09-02T01:14:56;23.70;70.10
74153;DHT22;62505;46.070;14.492;2022-09-02T01:17:24;23.70;70.30
74153;DHT22;62505;46.070;14.492;2022-09-02T01:19:55;23.70;70.10
74153;DHT22;62505;46.070;14.492;2022-09-02T01:22:26;23.70;70.00
74153;DHT22;62505;46.070;14.492;2022-09-02T01:24:56;23.80;70.10
74153;DHT22;62505;46.070;14.492;2022-09-02T01:27:24;23.80;69.90
74153;DHT22;62505;46.070;14.492;2022-09-02T01:29:54;23.80;69.80
74153;DHT22;62505;46.070;14.492;2022-09-02T01:32:22;23.70;69.70
74153;DHT22;62505;46.070;14.492;2022-09-02T01:34:50;23.70;69.60
74153;DHT22;62505;46.070;14.492;2022-09-02T01:37:18;23.70;69.60
74153;DHT22;62505;46.070;14.492;2022-09-02T01:39:46;23.70;69.60
74153;DHT22;62505;46.070;14.492;2022-09-02T01:42:14;23.70;69.60
74153;DHT22;62505;46.070;14.492;2022-09-02T01:44:41;23.70;69.50
74153;DHT22;62505;46.070;14.492;2022-09-02T01:47:10;23.70;69.40
74153;DHT22;62505;46.070;14.492;2022-09-02T01:49:37;23.70;69.30
74153;DHT22;62505;46.070;14.492;2022-09-02T01:52:04;23.70;69.30
74153;DHT22;62505;46.070;14.492;2022-09-02T01:54:31;23.70;69.30
74153;DHT22;62505;46.070;14.492;2022-09-02T01:57:00;23.70;69.10
74153;DHT22;62505;46.070;14.492;2022-09-02T01:59:28;23.70;69.00
74153;DHT22;62505;46.070;14.492;2022-09-02T02:01:55;23.70;69.00
74153;DHT22;62505;46.070;14.492;2022-09-02T02:04:22;23.70;69.00
74153;DHT22;62505;46.070;14.492;2022-09-02T02:06:50;23.70;69.00
74153;DHT22;62505;46.070;14.492;2022-09-02T02:09:17;23.70;68.80
74153;DHT22;62505;46.070;14.492;2022-09-02T02:11:45;23.70;68.90
74153;DHT22;62505;46.070;14.492;2022-09-02T02:14:14;23.60;68.90
74153;DHT22;62505;46.070;14.492;2022-09-02T02:16:41;23.70;68.80
74153;DHT22;62505;46.070;14.492;2022-09-02T02:19:08;23.70;68.60
74153;DHT22;62505;46.070;14.492;2022-09-02T02:21:35;23.70;68.60
74153;DHT22;62505;46.070;14.492;2022-09-02T02:24:02;23.70;68.50
74153;DHT22;62505;46.070;14.492;2022-09-02T02:26:31;23.70;68.50
74153;DHT22;62505;46.070;14.492;2022-09-02T02:28:58;23.70;68.40
74153;DHT22;62505;46.070;14.492;2022-09-02T02:31:26;23.70;68.50
74153;DHT22;62505;46.070;14.492;2022-09-02T02:33:53;23.70;68.30
74153;DHT22;62505;46.070;14.492;2022-09-02T02:36:20;23.60;68.90
74153;DHT22;62505;46.070;14.492;2022-09-02T02:38:47;23.70;68.20
74153;DHT22;62505;46.070;14.492;2022-09-02T02:41:14;23.60;68.20
74153;DHT22;62505;46.070;14.492;2022-09-02T02:43:41;23.70;68.20
74153;DHT22;62505;46.070;14.492;2022-09-02T02:46:08;23.70;68.10
74153;DHT22;62505;46.070;14.492;2022-09-02T02:48:38;23.70;67.90
74153;DHT22;62505;46.070;14.492;2022-09-02T02:51:05;23.60;67.90
74153;DHT22;62505;46.070;14.492;2022-09-02T02:53:33;23.60;67.70
74153;DHT22;62505;46.070;14.492;2022-09-02T02:56:02;23.60;67.70
74153;DHT22;62505;46.070;14.492;2022-09-02T02:58:29;23.60;67.70
74153;DHT22;62505;46.070;14.492;2022-09-02T03:00:57;23.60;67.60
74153;DHT22;62505;46.070;14.492;2022-09-02T03:03:25;23.60;67.60
74153;DHT22;62505;46.070;14.492;2022-09-02T03:05:53;23.60;67.70
74153;DHT22;62505;46.070;14.492;2022-09-02T03:08:21;23.60;67.60
74153;DHT22;62505;46.070;14.492;2022-09-02T03:10:52;23.60;67.40
74153;DHT22;62505;46.070;14.492;2022-09-02T03:13:21;23.60;67.50
74153;DHT22;62505;46.070;14.492;2022-09-02T03:15:48;23.60;67.20
74153;DHT22;62505;46.070;14.492;2022-09-02T03:18:15;23.60;67.30
74153;DHT22;62505;46.070;14.492;2022-09-02T03:20:44;23.60;67.10
74153;DHT22;62505;46.070;14.492;2022-09-02T03:23:12;23.60;67.30
74153;DHT22;62505;46.070;14.492;2022-09-02T03:25:41;23.60;67.20
74153;DHT22;62505;46.070;14.492;2022-09-02T03:28:08;23.60;67.20
74153;DHT22;62505;46.070;14.492;2022-09-02T03:30:37;23.60;67.20
74153;DHT22;62505;46.070;14.492;2022-09-02T03:33:05;23.60;67.20
74153;DHT22;62505;46.070;14.492;2022-09-02T03:35:32;23.60;67.00
74153;DHT22;62505;46.070;14.492;2022-09-02T03:37:59;23.60;67.00
74153;DHT22;62505;46.070;14.492;2022-09-02T03:40:28;23.60;67.00
74153;DHT22;62505;46.070;14.492;2022-09-02T03:42:56;23.60;67.00
74153;DHT22;62505;46.070;14.492;2022-09-02T03:45:23;23.60;66.80
74153;DHT22;62505;46.070;14.492;2022-09-02T03:47:50;23.60;66.70
74153;DHT22;62505;46.070;14.492;2022-09-02T03:50:21;23.60;66.80
74153;DHT22;62505;46.070;14.492;2022-09-02T03:52:48;23.60;66.70
74153;DHT22;62505;46.070;14.492;2022-09-02T03:55:16;23.60;66.80
74153;DHT22;62505;46.070;14.492;2022-09-02T03:57:45;23.60;66.60
74153;DHT22;62505;46.070;14.492;2022-09-02T04:00:13;23.60;66.70
74153;DHT22;62505;46.070;14.492;2022-09-02T04:02:41;23.60;66.70
74153;DHT22;62505;46.070;14.492;2022-09-02T04:05:10;23.60;66.60
74153;DHT22;62505;46.070;14.492;2022-09-02T04:07:37;23.60;66.60
74153;DHT22;62505;46.070;14.492;2022-09-02T04:10:05;23.60;66.60
74153;DHT22;62505;46.070;14.492;2022-09-02T04:12:33;23.60;66.40
74153;DHT22;62505;46.070;14.492;2022-09-02T04:15:02;23.60;66.60
74153;DHT22;62505;46.070;14.492;2022-09-02T04:17:29;23.60;66.60
74153;DHT22;62505;46.070;14.492;2022-09-02T04:19:56;23.60;66.40
74153;DHT22;62505;46.070;14.492;2022-09-02T04:22:23;23.60;66.50
74153;DHT22;62505;46.070;14.492;2022-09-02T04:24:49;23.60;66.70
74153;DHT22;62505;46.070;14.492;2022-09-02T04:27:16;23.60;66.40
74153;DHT22;62505;46.070;14.492;2022-09-02T04:29:43;23.60;66.40
74153;DHT22;62505;46.070;14.492;2022-09-02T04:32:11;23.60;66.50
74153;DHT22;62505;46.070;14.492;2022-09-02T04:34:38;23.60;66.40
74153;DHT22;62505;46.070;14.492;2022-09-02T04:37:05;23.60;66.40
74153;DHT22;62505;46.070;14.492;2022-09-02T04:39:32;23.60;66.40
74153;DHT22;62505;46.070;14.492;2022-09-02T04:41:59;23.50;66.20
74153;DHT22;62505;46.070;14.492;2022-09-02T04:44:26;23.60;66.20
74153;DHT22;62505;46.070;14.492;2022-09-02T04:46:53;23.60;66.10
74153;DHT22;62505;46.070;14.492;2022-09-02T04:49:22;23.60;66.10
74153;DHT22;62505;46.070;14.492;2022-09-02T04:51:49;23.60;66.20
74153;DHT22;62505;46.070;14.492;2022-09-02T04:54:15;23.60;66.30
74153;DHT22;62505;46.070;14.492;2022-09-02T04:56:42;23.50;66.00
74153;DHT22;62505;46.070;14.492;2022-09-02T04:59:09;23.60;66.90
74153;DHT22;62505;46.070;14.492;2022-09-02T05:01:36;23.60;66.00
74153;DHT22;62505;46.070;14.492;2022-09-02T05:04:04;23.60;65.80
74153;DHT22;62505;46.070;14.492;2022-09-02T05:06:36;23.60;65.80
74153;DHT22;62505;46.070;14.492;2022-09-02T05:09:05;23.60;65.90
74153;DHT22;62505;46.070;14.492;2022-09-02T05:11:33;23.60;65.80
74153;DHT22;62505;46.070;14.492;2022-09-02T05:14:03;23.60;65.80
74153;DHT22;62505;46.070;14.492;2022-09-02T05:16:33;23.60;65.90
74153;DHT22;62505;46.070;14.492;2022-09-02T05:19:01;23.50;65.60
74153;DHT22;62505;46.070;14.492;2022-09-02T05:21:29;23.50;65.70
74153;DHT22;62505;46.070;14.492;2022-09-02T05:23:58;23.50;65.60
74153;DHT22;62505;46.070;14.492;2022-09-02T05:26:25;23.60;65.70
74153;DHT22;62505;46.070;14.492;2022-09-02T05:28:52;23.50;65.60
74153;DHT22;62505;46.070;14.492;2022-09-02T05:31:20;23.50;65.40
74153;DHT22;62505;46.070;14.492;2022-09-02T05:33:47;23.60;66.40
74153;DHT22;62505;46.070;14.492;2022-09-02T05:36:16;23.50;65.60
74153;DHT22;62505;46.070;14.492;2022-09-02T05:38:44;23.60;65.40
74153;DHT22;62505;46.070;14.492;2022-09-02T05:41:15;23.50;65.30
74153;DHT22;62505;46.070;14.492;2022-09-02T05:43:44;23.60;65.40
74153;DHT22;62505;46.070;14.492;2022-09-02T05:46:14;23.50;65.30
74153;DHT22;62505;46.070;14.492;2022-09-02T05:48:43;23.50;65.30
74153;DHT22;62505;46.070;14.492;2022-09-02T05:51:28;23.50;65.30
74153;DHT22;62505;46.070;14.492;2022-09-02T05:53:57;23.50;65.30
74153;DHT22;62505;46.070;14.492;2022-09-02T05:56:26;23.50;65.30
74153;DHT22;62505;46.070;14.492;2022-09-02T05:58:54;23.50;65.30
74153;DHT22;62505;46.070;14.492;2022-09-02T06:01:22;23.50;65.30
74153;DHT22;62505;46.070;14.492;2022-09-02T06:03:49;23.50;65.40
74153;DHT22;62505;46.070;14.492;2022-09-02T06:06:18;23.60;65.30
74153;DHT22;62505;46.070;14.492;2022-09-02T06:08:47;23.50;65.30
74153;DHT22;62505;46.070;14.492;2022-09-02T06:11:14;23.50;65.30
74153;DHT22;62505;46.070;14.492;2022-09-02T06:13:44;23.50;65.30
74153;DHT22;62505;46.070;14.492;2022-09-02T06:16:13;23.50;65.20
74153;DHT22;62505;46.070;14.492;2022-09-02T06:18:40;23.50;65.30
74153;DHT22;62505;46.070;14.492;2022-09-02T06:21:07;23.50;65.30
74153;DHT22;62505;46.070;14.492;2022-09-02T06:23:35;23.50;65.40
74153;DHT22;62505;46.070;14.492;2022-09-02T06:26:04;23.50;65.30
74153;DHT22;62505;46.070;14.492;2022-09-02T06:28:32;23.50;65.30
74153;DHT22;62505;46.070;14.492;2022-09-02T06:31:05;23.50;65.30
74153;DHT22;62505;46.070;14.492;2022-09-02T06:33:33;23.50;65.30
74153;DHT22;62505;46.070;14.492;2022-09-02T06:36:00;23.50;65.30
74153;DHT22;62505;46.070;14.492;2022-09-02T06:38:27;23.50;65.40
74153;DHT22;62505;46.070;14.492;2022-09-02T06:40:55;23.50;65.30
74153;DHT22;62505;46.070;14.492;2022-09-02T06:43:21;23.50;65.30
74153;DHT22;62505;46.070;14.492;2022-09-02T06:45:49;23.50;65.20
74153;DHT22;62505;46.070;14.492;2022-09-02T06:48:17;23.50;65.20
74153;DHT22;62505;46.070;14.492;2022-09-02T06:50:45;23.50;65.20
74153;DHT22;62505;46.070;14.492;2022-09-02T06:53:13;23.50;65.20
74153;DHT22;62505;46.070;14.492;2022-09-02T06:55:44;23.50;65.30
74153;DHT22;62505;46.070;14.492;2022-09-02T06:58:12;23.50;65.30
74153;DHT22;62505;46.070;14.492;2022-09-02T07:00:40;23.50;65.40
74153;DHT22;62505;46.070;14.492;2022-09-02T07:03:07;23.50;65.30
74153;DHT22;62505;46.070;14.492;2022-09-02T07:06:01;23.50;65.40
74153;DHT22;62505;46.070;14.492;2022-09-02T07:08:29;23.50;65.30
74153;DHT22;62505;46.070;14.492;2022-09-02T07:10:56;23.50;65.20
74153;DHT22;62505;46.070;14.492;2022-09-02T07:13:23;23.50;65.30
74153;DHT22;62505;46.070;14.492;2022-09-02T07:15:50;23.50;65.20
74153;DHT22;62505;46.070;14.492;2022-09-02T07:18:17;23.50;65.20
74153;DHT22;62505;46.070;14.492;2022-09-02T07:20:45;23.50;65.20
74153;DHT22;62505;46.070;14.492;2022-09-02T07:23:14;23.50;65.20
74153;DHT22;62505;46.070;14.492;2022-09-02T07:25:42;23.50;65.20
74153;DHT22;62505;46.070;14.492;2022-09-02T07:28:09;23.50;65.20
74153;DHT22;62505;46.070;14.492;2022-09-02T07:30:36;23.50;65.10
74153;DHT22;62505;46.070;14.492;2022-09-02T07:33:06;23.50;65.20
74153;DHT22;62505;46.070;14.492;2022-09-02T07:35:33;23.50;65.10
74153;DHT22;62505;46.070;14.492;2022-09-02T07:38:01;23.50;65.00
74153;DHT22;62505;46.070;14.492;2022-09-02T07:40:30;23.50;65.10
74153;DHT22;62505;46.070;14.492;2022-09-02T07:42:58;23.50;65.10
74153;DHT22;62505;46.070;14.492;2022-09-02T07:45:25;23.50;65.10
74153;DHT22;62505;46.070;14.492;2022-09-02T07:47:52;23.50;65.10
74153;DHT22;62505;46.070;14.492;2022-09-02T07:50:19;23.50;65.40
74153;DHT22;62505;46.070;14.492;2022-09-02T07:52:46;23.50;65.20
74153;DHT22;62505;46.070;14.492;2022-09-02T07:55:15;23.50;65.40
74153;DHT22;62505;46.070;14.492;2022-09-02T07:57:43;23.50;65.20
74153;DHT22;62505;46.070;14.492;2022-09-02T08:00:12;23.50;65.20
74153;DHT22;62505;46.070;14.492;2022-09-02T08:02:39;23.50;65.20
74153;DHT22;62505;46.070;14.492;2022-09-02T08:05:07;23.50;65.20
74153;DHT22;62505;46.070;14.492;2022-09-02T08:07:34;23.50;65.20
74153;DHT22;62505;46.070;14.492;2022-09-02T08:10:01;23.50;65.20
74153;DHT22;62505;46.070;14.492;2022-09-02T08:12:28;23.50;65.10
74153;DHT22;62505;46.070;14.492;2022-09-02T08:14:56;23.50;65.10
74153;DHT22;62505;46.070;14.492;2022-09-02T08:17:23;23.50;65.20
74153;DHT22;62505;46.070;14.492;2022-09-02T08:19:50;23.50;65.20
74153;DHT22;62505;46.070;14.492;2022-09-02T08:22:21;23.50;65.30
74153;DHT22;62505;46.070;14.492;2022-09-02T08:24:48;23.50;65.00
74153;DHT22;62505;46.070;14.492;2022-09-02T08:27:15;23.50;64.80
74153;DHT22;62505;46.070;14.492;2022-09-02T08:29:42;23.50;64.80
74153;DHT22;62505;46.070;14.492;2022-09-02T08:32:10;23.50;64.80
74153;DHT22;62505;46.070;14.492;2022-09-02T08:34:37;23.50;64.90
74153;DHT22;62505;46.070;14.492;2022-09-02T08:37:04;23.50;64.70
74153;DHT22;62505;46.070;14.492;2022-09-02T08:39:31;23.50;65.20
74153;DHT22;62505;46.070;14.492;2022-09-02T08:42:04;23.50;65.20
74153;DHT22;62505;46.070;14.492;2022-09-02T08:44:36;23.50;65.20
74153;DHT22;62505;46.070;14.492;2022-09-02T08:47:11;23.50;65.10
74153;DHT22;62505;46.070;14.492;2022-09-02T08:49:41;23.50;65.10
74153;DHT22;62505;46.070;14.492;2022-09-02T08:52:14;23.50;65.00
74153;DHT22;62505;46.070;14.492;2022-09-02T08:54:45;23.50;65.20
74153;DHT22;62505;46.070;14.492;2022-09-02T08:57:13;23.50;64.70
74153;DHT22;62505;46.070;14.492;2022-09-02T08:59:40;23.50;64.60
74153;DHT22;62505;46.070;14.492;2022-09-02T09:02:18;23.50;64.60
74153;DHT22;62505;46.070;14.492;2022-09-02T09:04:59;23.50;64.70
74153;DHT22;62505;46.070;14.492;2022-09-02T09:07:33;23.50;64.60
74153;DHT22;62505;46.070;14.492;2022-09-02T09:10:13;23.50;64.30
74153;DHT22;62505;46.070;14.492;2022-09-02T09:13:00;23.50;64.60
74153;DHT22;62505;46.070;14.492;2022-09-02T09:15:35;23.50;64.60
74153;DHT22;62505;46.070;14.492;2022-09-02T09:18:10;23.50;64.70
74153;DHT22;62505;46.070;14.492;2022-09-02T09:20:41;23.50;64.60
74153;DHT22;62505;46.070;14.492;2022-09-02T09:23:21;23.50;64.60
74153;DHT22;62505;46.070;14.492;2022-09-02T09:25:56;23.50;64.50
74153;DHT22;62505;46.070;14.492;2022-09-02T09:28:25;23.50;64.30
74153;DHT22;62505;46.070;14.492;2022-09-02T09:30:52;23.50;64.50
74153;DHT22;62505;46.070;14.492;2022-09-02T09:33:20;23.50;64.40
74153;DHT22;62505;46.070;14.492;2022-09-02T09:35:50;23.50;64.30
74153;DHT22;62505;46.070;14.492;2022-09-02T09:38:28;23.50;64.20
74153;DHT22;62505;46.070;14.492;2022-09-02T09:41:10;23.50;64.20
74153;DHT22;62505;46.070;14.492;2022-09-02T09:43:39;23.50;64.20
74153;DHT22;62505;46.070;14.492;2022-09-02T09:46:20;23.50;64.20
74153;DHT22;62505;46.070;14.492;2022-09-02T09:48:49;23.50;64.00
74153;DHT22;62505;46.070;14.492;2022-09-02T09:51:16;23.50;64.20
74153;DHT22;62505;46.070;14.492;2022-09-02T09:53:44;23.50;64.00
74153;DHT22;62505;46.070;14.492;2022-09-02T09:56:26;23.50;64.00
74153;DHT22;62505;46.070;14.492;2022-09-02T09:58:54;23.50;64.00
74153;DHT22;62505;46.070;14.492;2022-09-02T10:01:23;23.50;64.00
74153;DHT22;62505;46.070;14.492;2022-09-02T10:03:54;23.50;64.00
74153;DHT22;62505;46.070;14.492;2022-09-02T10:06:24;23.50;63.80
74153;DHT22;62505;46.070;14.492;2022-09-02T10:09:03;23.50;63.90
74153;DHT22;62505;46.070;14.492;2022-09-02T10:11:32;23.50;63.90
74153;DHT22;62505;46.070;14.492;2022-09-02T10:14:01;23.50;63.90
74153;DHT22;62505;46.070;14.492;2022-09-02T10:16:42;23.50;63.90
74153;DHT22;62505;46.070;14.492;2022-09-02T10:19:19;23.50;63.90
74153;DHT22;62505;46.070;14.492;2022-09-02T10:22:02;23.50;63.70
74153;DHT22;62505;46.070;14.492;2022-09-02T10:24:46;23.50;63.90
74153;DHT22;62505;46.070;14.492;2022-09-02T10:27:22;23.50;63.70
74153;DHT22;62505;46.070;14.492;2022-09-02T10:29:57;23.50;63.70
74153;DHT22;62505;46.070;14.492;2022-09-02T10:32:47;23.50;63.80
74153;DHT22;62505;46.070;14.492;2022-09-02T10:35:23;23.50;63.70
74153;DHT22;62505;46.070;14.492;2022-09-02T10:38:05;23.50;63.60
74153;DHT22;62505;46.070;14.492;2022-09-02T10:40:37;23.50;63.50
74153;DHT22;62505;46.070;14.492;2022-09-02T10:43:07;23.60;63.60
74153;DHT22;62505;46.070;14.492;2022-09-02T10:45:36;23.60;63.60
74153;DHT22;62505;46.070;14.492;2022-09-02T10:48:25;23.50;63.60
74153;DHT22;62505;46.070;14.492;2022-09-02T10:51:01;23.50;63.50
74153;DHT22;62505;46.070;14.492;2022-09-02T10:53:37;23.60;63.60
74153;DHT22;62505;46.070;14.492;2022-09-02T10:56:13;23.50;63.60
74153;DHT22;62505;46.070;14.492;2022-09-02T10:58:45;23.60;63.70
74153;DHT22;62505;46.070;14.492;2022-09-02T11:01:19;23.50;63.70
74153;DHT22;62505;46.070;14.492;2022-09-02T11:03:56;23.60;63.70
74153;DHT22;62505;46.070;14.492;2022-09-02T11:06:28;23.50;63.70
74153;DHT22;62505;46.070;14.492;2022-09-02T11:08:57;23.60;63.80
74153;DHT22;62505;46.070;14.492;2022-09-02T11:11:30;23.60;63.80
74153;DHT22;62505;46.070;14.492;2022-09-02T11:14:05;23.60;63.90
74153;DHT22;62505;46.070;14.492;2022-09-02T11:16:39;23.50;63.70
74153;DHT22;62505;46.070;14.492;2022-09-02T11:19:11;23.60;64.00
74153;DHT22;62505;46.070;14.492;2022-09-02T11:21:51;23.60;63.90
74153;DHT22;62505;46.070;14.492;2022-09-02T11:24:22;23.60;63.90
74153;DHT22;62505;46.070;14.492;2022-09-02T11:26:56;23.60;63.80
74153;DHT22;62505;46.070;14.492;2022-09-02T11:29:34;23.60;63.80
74153;DHT22;62505;46.070;14.492;2022-09-02T11:32:12;23.60;64.00
74153;DHT22;62505;46.070;14.492;2022-09-02T11:34:45;23.60;64.00
74153;DHT22;62505;46.070;14.492;2022-09-02T11:37:25;23.60;63.90
74153;DHT22;62505;46.070;14.492;2022-09-02T11:39:57;23.60;63.80
74153;DHT22;62505;46.070;14.492;2022-09-02T11:42:35;23.60;63.90
74153;DHT22;62505;46.070;14.492;2022-09-02T11:45:19;23.60;63.90
74153;DHT22;62505;46.070;14.492;2022-09-02T11:48:21;23.60;63.90
74153;DHT22;62505;46.070;14.492;2022-09-02T11:51:22;23.60;63.80
74153;DHT22;62505;46.070;14.492;2022-09-02T11:53:55;23.60;63.70
74153;DHT22;62505;46.070;14.492;2022-09-02T11:56:25;23.60;63.90
74153;DHT22;62505;46.070;14.492;2022-09-02T11:58:53;23.60;63.60
74153;DHT22;62505;46.070;14.492;2022-09-02T12:01:29;23.60;63.50
74153;DHT22;62505;46.070;14.492;2022-09-02T12:04:00;23.60;63.60
74153;DHT22;62505;46.070;14.492;2022-09-02T12:06:28;23.60;63.50
74153;DHT22;62505;46.070;14.492;2022-09-02T12:09:08;23.60;63.20
74153;DHT22;62505;46.070;14.492;2022-09-02T12:11:44;23.60;63.40
74153;DHT22;62505;46.070;14.492;2022-09-02T12:17:36;23.60;63.40
74153;DHT22;62505;46.070;14.492;2022-09-02T12:20:06;23.60;63.30
74153;DHT22;62505;46.070;14.492;2022-09-02T12:22:38;23.60;63.30
74153;DHT22;62505;46.070;14.492;2022-09-02T12:28:33;23.60;63.20
74153;DHT22;62505;46.070;14.492;2022-09-02T12:31:17;23.60;63.20
74153;DHT22;62505;46.070;14.492;2022-09-02T12:37:51;23.60;63.10
74153;DHT22;62505;46.070;14.492;2022-09-02T12:40:31;23.60;62.90
74153;DHT22;62505;46.070;14.492;2022-09-02T12:43:03;23.60;63.20
74153;DHT22;62505;46.070;14.492;2022-09-02T12:45:33;23.60;63.00
74153;DHT22;62505;46.070;14.492;2022-09-02T12:48:11;23.60;63.20
74153;DHT22;62505;46.070;14.492;2022-09-02T12:50:53;23.60;63.10
74153;DHT22;62505;46.070;14.492;2022-09-02T12:53:28;23.60;62.90
74153;DHT22;62505;46.070;14.492;2022-09-02T12:55:59;23.60;63.00
74153;DHT22;62505;46.070;14.492;2022-09-02T12:58:32;23.60;63.70
74153;DHT22;62505;46.070;14.492;2022-09-02T13:01:08;23.60;63.40
74153;DHT22;62505;46.070;14.492;2022-09-02T13:03:58;23.60;63.40
74153;DHT22;62505;46.070;14.492;2022-09-02T13:06:38;23.60;64.60
74153;DHT22;62505;46.070;14.492;2022-09-02T13:09:35;23.60;63.70
74153;DHT22;62505;46.070;14.492;2022-09-02T13:12:26;23.60;63.70
74153;DHT22;62505;46.070;14.492;2022-09-02T13:15:22;23.60;63.60
74153;DHT22;62505;46.070;14.492;2022-09-02T13:21:35;23.60;63.70
74153;DHT22;62505;46.070;14.492;2022-09-02T13:24:30;23.60;63.70
74153;DHT22;62505;46.070;14.492;2022-09-02T13:30:19;23.60;63.70
74153;DHT22;62505;46.070;14.492;2022-09-02T13:32:58;23.60;63.80
74153;DHT22;62505;46.070;14.492;2022-09-02T13:35:27;23.60;63.70
74153;DHT22;62505;46.070;14.492;2022-09-02T13:37:56;23.60;63.60
74153;DHT22;62505;46.070;14.492;2022-09-02T13:40:27;23.60;63.60
74153;DHT22;62505;46.070;14.492;2022-09-02T13:42:56;23.60;63.50
74153;DHT22;62505;46.070;14.492;2022-09-02T13:45:26;23.60;63.70
74153;DHT22;62505;46.070;14.492;2022-09-02T13:47:54;23.60;64.30
74153;DHT22;62505;46.070;14.492;2022-09-02T13:50:23;23.60;63.50
74153;DHT22;62505;46.070;14.492;2022-09-02T13:52:53;23.60;63.50
74153;DHT22;62505;46.070;14.492;2022-09-02T13:55:21;23.60;63.40
74153;DHT22;62505;46.070;14.492;2022-09-02T13:57:54;23.60;63.40
74153;DHT22;62505;46.070;14.492;2022-09-02T14:00:31;23.60;63.30
74153;DHT22;62505;46.070;14.492;2022-09-02T14:03:01;23.60;63.40
74153;DHT22;62505;46.070;14.492;2022-09-02T14:05:29;23.60;63.30
74153;DHT22;62505;46.070;14.492;2022-09-02T14:07:59;23.60;63.40
74153;DHT22;62505;46.070;14.492;2022-09-02T14:10:29;23.60;63.40
74153;DHT22;62505;46.070;14.492;2022-09-02T14:13:00;23.60;63.50
74153;DHT22;62505;46.070;14.492;2022-09-02T14:15:30;23.60;63.50
74153;DHT22;62505;46.070;14.492;2022-09-02T14:18:13;23.60;63.40
74153;DHT22;62505;46.070;14.492;2022-09-02T14:20:53;23.60;63.40
74153;DHT22;62505;46.070;14.492;2022-09-02T14:23:22;23.60;63.40
74153;DHT22;62505;46.070;14.492;2022-09-02T14:25:52;23.60;64.30
74153;DHT22;62505;46.070;14.492;2022-09-02T14:28:21;23.60;63.70
74153;DHT22;62505;46.070;14.492;2022-09-02T14:31:01;23.60;63.50
74153;DHT22;62505;46.070;14.492;2022-09-02T14:33:40;23.60;63.60
74153;DHT22;62505;46.070;14.492;2022-09-02T14:36:08;23.60;63.50
74153;DHT22;62505;46.070;14.492;2022-09-02T14:38:49;23.60;63.60
74153;DHT22;62505;46.070;14.492;2022-09-02T14:41:21;23.60;63.50
74153;DHT22;62505;46.070;14.492;2022-09-02T14:43:50;23.70;63.50
74153;DHT22;62505;46.070;14.492;2022-09-02T14:46:25;23.60;63.30
74153;DHT22;62505;46.070;14.492;2022-09-02T14:48:59;23.60;63.40
74153;DHT22;62505;46.070;14.492;2022-09-02T14:51:35;23.60;63.40
74153;DHT22;62505;46.070;14.492;2022-09-02T14:54:04;23.60;63.40
74153;DHT22;62505;46.070;14.492;2022-09-02T14:56:45;23.60;63.40
74153;DHT22;62505;46.070;14.492;2022-09-02T14:59:12;23.60;63.70
74153;DHT22;62505;46.070;14.492;2022-09-02T15:01:44;23.60;63.70
74153;DHT22;62505;46.070;14.492;2022-09-02T15:04:12;23.60;63.60
74153;DHT22;62505;46.070;14.492;2022-09-02T15:06:39;23.60;63.40
74153;DHT22;62505;46.070;14.492;2022-09-02T15:09:07;23.60;63.50
74153;DHT22;62505;46.070;14.492;2022-09-02T15:11:34;23.60;63.70
74153;DHT22;62505;46.070;14.492;2022-09-02T15:14:02;23.60;64.40
74153;DHT22;62505;46.070;14.492;2022-09-02T15:16:29;23.60;63.70
74153;DHT22;62505;46.070;14.492;2022-09-02T15:18:57;23.60;63.50
74153;DHT22;62505;46.070;14.492;2022-09-02T15:21:24;23.70;63.70
74153;DHT22;62505;46.070;14.492;2022-09-02T15:23:51;23.60;63.50
74153;DHT22;62505;46.070;14.492;2022-09-02T15:26:18;23.60;63.50
74153;DHT22;62505;46.070;14.492;2022-09-02T15:28:45;23.70;63.70
74153;DHT22;62505;46.070;14.492;2022-09-02T15:31:12;23.70;63.80
74153;DHT22;62505;46.070;14.492;2022-09-02T15:33:39;23.70;63.80
74153;DHT22;62505;46.070;14.492;2022-09-02T15:36:09;23.70;63.70
74153;DHT22;62505;46.070;14.492;2022-09-02T15:38:37;23.70;63.60
74153;DHT22;62505;46.070;14.492;2022-09-02T15:41:10;23.70;63.50
74153;DHT22;62505;46.070;14.492;2022-09-02T15:43:37;23.60;63.50
74153;DHT22;62505;46.070;14.492;2022-09-02T15:46:16;23.70;63.30
74153;DHT22;62505;46.070;14.492;2022-09-02T15:48:43;23.70;63.40
74153;DHT22;62505;46.070;14.492;2022-09-02T15:51:12;23.60;64.00
74153;DHT22;62505;46.070;14.492;2022-09-02T15:53:40;23.60;63.10